createdAt,value
2019-04-29T00:01:09.013Z,8.50
2019-04-29T00:03:37.562Z,8.43
2019-04-29T00:06:06.231Z,5.03
2019-04-29T00:08:34.865Z,4.00
2019-04-29T00:11:03.456Z,4.07
2019-04-29T00:13:31.993Z,12.73
2019-04-29T00:16:20.931Z,4.57
2019-04-29T00:19:07.672Z,5.80
2019-04-29T00:21:36.339Z,4.63
2019-04-29T00:24:04.872Z,4.20
2019-04-29T00:26:33.545Z,5.67
2019-04-29T00:29:02.049Z,5.40
2019-04-29T00:31:30.624Z,4.23
2019-04-29T00:33:59.195Z,7.10
2019-04-29T00:36:41.469Z,6.53
2019-04-29T00:39:28.423Z,5.63
2019-04-29T00:42:04.272Z,14.20
2019-04-29T00:44:32.834Z,5.50
2019-04-29T00:47:01.421Z,5.97
2019-04-29T00:49:29.942Z,5.87
2019-04-29T00:51:58.495Z,8.87
2019-04-29T00:54:34.723Z,7.10
2019-04-29T00:57:03.327Z,6.67
2019-04-29T00:59:31.900Z,11.50
2019-04-29T01:02:00.512Z,10.43
2019-04-29T01:04:29.070Z,10.33
2019-04-29T01:06:57.640Z,7.60
2019-04-29T01:09:27.796Z,7.60
2019-04-29T01:11:56.408Z,8.07
2019-04-29T01:14:24.891Z,8.80
2019-04-29T01:16:53.366Z,7.53
2019-04-29T01:19:22.115Z,5.87
2019-04-29T01:21:50.691Z,10.07
2019-04-29T01:24:19.250Z,6.00
2019-04-29T01:26:55.529Z,8.00
2019-04-29T01:29:25.667Z,8.50
2019-04-29T01:31:54.240Z,8.87
2019-04-29T01:34:24.466Z,12.27
2019-04-29T01:36:53.015Z,8.80
2019-04-29T01:39:23.431Z,7.53
2019-04-29T01:41:53.611Z,8.90
2019-04-29T01:44:26.566Z,9.30
2019-04-29T01:46:55.101Z,6.57
2019-04-29T01:49:23.666Z,8.97
2019-04-29T01:51:52.208Z,11.30
2019-04-29T01:54:20.796Z,11.70
2019-04-29T01:56:49.291Z,8.40
2019-04-29T01:59:17.848Z,8.07
2019-04-29T02:01:46.390Z,9.00
2019-04-29T02:04:15.067Z,11.30
2019-04-29T02:06:43.570Z,10.37
2019-04-29T02:09:14.070Z,8.60
2019-04-29T02:11:42.630Z,12.57
2019-04-29T02:14:11.185Z,13.27
2019-04-29T02:16:39.681Z,12.83
2019-04-29T02:19:08.248Z,11.60
2019-04-29T02:21:36.805Z,10.40
2019-04-29T02:24:21.034Z,10.20
2019-04-29T02:26:49.515Z,12.50
2019-04-29T02:29:18.009Z,14.73
2019-04-29T02:31:47.907Z,12.30
2019-04-29T02:34:16.473Z,9.90
2019-04-29T02:36:45.045Z,11.80
2019-04-29T02:39:31.544Z,15.53
2019-04-29T02:42:10.510Z,10.70
2019-04-29T02:44:38.991Z,11.43
2019-04-29T02:47:07.496Z,15.83
2019-04-29T02:49:36.066Z,12.87
2019-04-29T02:52:04.685Z,11.87
2019-04-29T02:54:33.242Z,10.93
2019-04-29T02:57:09.208Z,15.57
2019-04-29T02:59:47.912Z,14.17
2019-04-29T03:02:23.938Z,12.10
2019-04-29T03:05:06.642Z,12.23
2019-04-29T03:07:35.156Z,12.73
2019-04-29T03:10:04.293Z,13.20
2019-04-29T03:12:32.949Z,16.47
2019-04-29T03:15:01.503Z,16.90
2019-04-29T03:17:30.562Z,16.73
2019-04-29T03:20:12.778Z,16.43
2019-04-29T03:22:43.165Z,14.27
2019-04-29T03:25:11.815Z,14.77
2019-04-29T03:27:40.779Z,14.60
2019-04-29T03:30:09.867Z,13.80
2019-04-29T03:32:38.423Z,14.47
2019-04-29T03:35:07.375Z,16.57
2019-04-29T03:37:35.940Z,16.20
2019-04-29T03:40:05.438Z,15.53
2019-04-29T03:42:34.006Z,21.23
2019-04-29T03:45:02.852Z,15.10
2019-04-29T03:47:31.452Z,15.20
2019-04-29T03:50:00.005Z,17.53
2019-04-29T03:52:28.603Z,17.50
2019-04-29T03:54:57.202Z,17.27
2019-04-29T03:57:25.761Z,16.20
2019-04-29T03:59:56.991Z,18.23
2019-04-29T04:02:42.423Z,18.10
2019-04-29T04:05:21.641Z,18.43
2019-04-29T04:07:51.892Z,18.37
2019-04-29T04:10:20.417Z,21.03
2019-04-29T04:12:48.962Z,18.00
2019-04-29T04:15:17.436Z,17.50
2019-04-29T04:18:02.673Z,17.67
2019-04-29T04:20:31.245Z,22.87
2019-04-29T04:22:59.814Z,22.07
2019-04-29T04:25:28.307Z,19.20
2019-04-29T04:27:57.389Z,18.43
2019-04-29T04:30:25.943Z,20.83
2019-04-29T04:32:54.527Z,18.13
2019-04-29T04:35:23.072Z,19.90
2019-04-29T04:37:51.662Z,22.67
2019-04-29T04:40:30.868Z,20.20
2019-04-29T04:42:59.442Z,23.90
2019-04-29T04:45:28.032Z,23.83
2019-04-29T04:47:56.610Z,22.17
2019-04-29T04:50:25.150Z,20.70
2019-04-29T04:52:53.749Z,23.30
2019-04-29T04:55:23.972Z,21.73
2019-04-29T04:57:52.605Z,18.60
2019-04-29T05:00:22.839Z,21.57
2019-04-29T05:02:51.408Z,20.10
2019-04-29T05:05:19.967Z,22.37
2019-04-29T05:07:48.468Z,20.60
2019-04-29T05:10:17.094Z,22.73
2019-04-29T05:12:47.305Z,21.97
2019-04-29T05:15:16.058Z,22.17
2019-04-29T05:17:44.571Z,20.20
2019-04-29T05:20:13.186Z,18.00
2019-04-29T05:22:43.469Z,30.53
2019-04-29T05:25:12.208Z,15.87
2019-04-29T05:27:40.768Z,21.37
2019-04-29T05:30:09.732Z,21.33
2019-04-29T05:32:38.283Z,20.43
2019-04-29T05:35:11.447Z,20.60
2019-04-29T05:37:47.449Z,29.17
2019-04-29T05:40:17.609Z,26.27
2019-04-29T05:42:48.327Z,20.30
2019-04-29T05:45:33.025Z,17.90
2019-04-29T05:48:15.219Z,20.17
2019-04-29T05:50:52.109Z,21.90
2019-04-29T05:53:33.997Z,16.10
2019-04-29T05:56:02.700Z,17.43
2019-04-29T05:58:32.778Z,15.90
2019-04-29T06:01:03.052Z,17.50
2019-04-29T06:03:37.854Z,19.90
2019-04-29T06:06:04.314Z,20.60
2019-04-29T06:08:34.511Z,19.00
2019-04-29T06:11:03.033Z,18.83
2019-04-29T06:13:31.533Z,14.13
2019-04-29T06:16:00.136Z,18.77
2019-04-29T06:18:28.710Z,14.53
2019-04-29T06:21:08.371Z,17.00
2019-04-29T06:23:27.528Z,16.70
2019-04-29T06:25:56.031Z,15.10
2019-04-29T06:28:26.515Z,14.63
2019-04-29T06:34:00.656Z,17.53
2019-04-29T06:36:28.975Z,17.63
2019-04-29T06:38:57.922Z,17.43
2019-04-29T06:41:26.499Z,13.97
2019-04-29T06:43:56.180Z,13.70
2019-04-29T06:46:24.873Z,17.30
2019-04-29T06:48:53.361Z,16.50
2019-04-29T06:51:21.900Z,14.53
2019-04-29T06:53:50.383Z,13.03
2019-04-29T06:56:18.960Z,15.00
2019-04-29T06:58:49.147Z,13.60
2019-04-29T07:01:17.827Z,15.80
2019-04-29T07:03:46.408Z,15.73
2019-04-29T07:06:14.958Z,14.27
2019-04-29T07:08:43.611Z,14.23
2019-04-29T07:11:14.883Z,12.03
2019-04-29T07:13:46.494Z,16.97
2019-04-29T07:16:16.851Z,14.00
2019-04-29T07:18:47.872Z,11.20
2019-04-29T07:21:14.186Z,13.73
2019-04-29T07:23:42.758Z,12.43
2019-04-29T07:26:11.344Z,12.90
2019-04-29T07:28:39.922Z,11.33
2019-04-29T07:31:10.105Z,9.67
2019-04-29T07:33:38.653Z,14.10
2019-04-29T07:36:11.051Z,10.90
2019-04-29T07:38:41.701Z,9.60
2019-04-29T07:41:09.995Z,10.13
2019-04-29T07:43:38.465Z,9.93
2019-04-29T07:46:22.253Z,8.97
2019-04-29T07:49:01.298Z,10.90
2019-04-29T07:51:21.047Z,12.90
2019-04-29T07:53:49.629Z,11.83
2019-04-29T07:56:18.161Z,9.37
2019-04-29T07:58:48.530Z,11.80
2019-04-29T08:01:19.940Z,12.23
2019-04-29T08:03:47.107Z,11.07
2019-04-29T08:06:16.263Z,10.47
2019-04-29T08:08:54.712Z,12.93
2019-04-29T08:11:15.584Z,9.90
2019-04-29T08:13:45.090Z,10.37
2019-04-29T08:16:17.227Z,17.43
2019-04-29T08:18:43.909Z,13.60
2019-04-29T08:21:14.303Z,20.10
2019-04-29T08:23:42.656Z,13.90
2019-04-29T08:26:11.172Z,14.20
2019-04-29T08:28:39.762Z,17.80
2019-04-29T08:31:08.268Z,17.00
2019-04-29T08:33:36.871Z,15.73
2019-04-29T08:36:05.484Z,14.30
2019-04-29T08:38:34.075Z,14.23
2019-04-29T08:41:02.645Z,16.10
2019-04-29T08:43:44.871Z,14.40
2019-04-29T08:46:27.208Z,16.77
2019-04-29T08:48:55.734Z,16.57
2019-04-29T08:51:24.283Z,15.77
2019-04-29T08:53:52.912Z,15.10
2019-04-29T08:56:21.469Z,19.93
2019-04-29T08:58:51.093Z,20.73
2019-04-29T09:01:24.580Z,25.87
2019-04-29T09:03:53.748Z,19.80
2019-04-29T09:06:23.164Z,21.30
2019-04-29T09:08:55.318Z,20.50
2019-04-29T09:11:24.763Z,23.03
2019-04-29T09:13:53.444Z,19.77
2019-04-29T09:16:22.020Z,18.60
2019-04-29T09:18:50.572Z,24.27
2019-04-29T09:21:19.174Z,21.97
2019-04-29T09:23:47.737Z,28.40
2019-04-29T09:26:23.963Z,23.03
2019-04-29T09:28:50.916Z,24.87
2019-04-29T09:31:19.491Z,23.00
2019-04-29T09:33:49.251Z,23.67
2019-04-29T09:36:18.301Z,22.90
2019-04-29T09:38:49.829Z,22.03
2019-04-29T09:41:25.820Z,32.70
2019-04-29T09:44:05.561Z,26.17
2019-04-29T09:46:35.844Z,29.43
2019-04-29T09:49:04.540Z,20.33
2019-04-29T09:51:34.734Z,24.83
2019-04-29T09:54:03.212Z,21.00
2019-04-29T09:56:34.513Z,20.40
2019-04-29T09:59:19.943Z,25.73
2019-04-29T10:01:55.072Z,23.13
2019-04-29T10:04:30.243Z,22.13
2019-04-29T10:06:58.827Z,18.23
2019-04-29T10:09:27.451Z,23.17
2019-04-29T10:11:56.030Z,20.37
2019-04-29T10:14:24.614Z,26.13
2019-04-29T10:16:54.877Z,21.67
2019-04-29T10:19:25.090Z,26.40
2019-04-29T10:21:53.745Z,24.27
2019-04-29T10:24:22.282Z,25.47
2019-04-29T10:26:50.816Z,23.00
2019-04-29T10:29:21.089Z,28.03
2019-04-29T10:31:49.686Z,21.40
2019-04-29T10:34:18.439Z,23.80
2019-04-29T10:36:47.108Z,23.13
2019-04-29T10:39:33.891Z,28.37
2019-04-29T10:42:04.259Z,25.70
2019-04-29T10:44:49.759Z,25.10
2019-04-29T10:47:19.999Z,22.63
2019-04-29T10:49:50.202Z,26.47
2019-04-29T10:52:18.845Z,28.53
2019-04-29T10:54:51.653Z,25.80
2019-04-29T10:57:18.868Z,25.93
2019-04-29T10:59:50.270Z,25.73
2019-04-29T11:02:32.648Z,22.43
2019-04-29T11:05:21.611Z,23.97
2019-04-29T11:07:51.934Z,24.30
2019-04-29T11:10:25.420Z,24.97
2019-04-29T11:12:52.513Z,36.27
2019-04-29T11:15:22.918Z,24.63
2019-04-29T11:17:59.183Z,23.47
2019-04-29T11:20:23.432Z,33.53
2019-04-29T11:23:16.620Z,30.47
2019-04-29T11:25:51.495Z,33.20
2019-04-29T11:28:20.675Z,21.60
2019-04-29T11:30:49.723Z,29.63
2019-04-29T11:33:29.593Z,25.13
2019-04-29T11:36:04.117Z,33.33
2019-04-29T11:38:38.036Z,25.37
2019-04-29T11:41:03.339Z,21.37
2019-04-29T11:43:32.219Z,33.47
2019-04-29T11:46:00.787Z,24.53
2019-04-29T11:48:29.286Z,20.27
2019-04-29T11:50:59.450Z,23.17
2019-04-29T11:53:28.058Z,25.43
2019-04-29T11:55:58.536Z,23.70
2019-04-29T11:58:31.248Z,26.37
2019-04-29T12:01:08.587Z,24.53
2019-04-29T12:03:37.574Z,28.80
2019-04-29T12:06:10.951Z,24.93
2019-04-29T12:08:39.619Z,29.63
2019-04-29T12:11:08.117Z,28.00
2019-04-29T12:13:53.402Z,29.30
2019-04-29T12:16:24.662Z,25.90
2019-04-29T12:18:55.431Z,18.07
2019-04-29T12:21:28.414Z,28.30
2019-04-29T12:23:58.545Z,25.37
2019-04-29T12:26:27.262Z,31.47
2019-04-29T12:28:56.179Z,22.30
2019-04-29T12:31:26.379Z,26.80
2019-04-29T12:34:02.419Z,22.00
2019-04-29T12:36:34.975Z,23.20
2019-04-29T12:39:08.685Z,25.50
2019-04-29T12:41:55.158Z,24.67
2019-04-29T12:44:35.379Z,22.63
2019-04-29T12:47:25.865Z,22.97
2019-04-29T12:49:46.400Z,27.27
2019-04-29T12:52:13.182Z,27.53
2019-04-29T12:54:41.937Z,24.17
2019-04-29T12:57:12.132Z,21.90
2019-04-29T12:59:40.694Z,27.83
2019-04-29T13:02:19.954Z,24.07
2019-04-29T13:04:54.437Z,27.83
2019-04-29T13:07:24.651Z,21.97
2019-04-29T13:10:13.624Z,20.53
2019-04-29T13:12:44.475Z,26.77
2019-04-29T13:15:29.170Z,31.23
2019-04-29T13:18:03.814Z,18.87
2019-04-29T13:20:30.131Z,20.37
2019-04-29T13:22:59.015Z,22.90
2019-04-29T13:25:28.979Z,25.63
2019-04-29T13:28:03.955Z,21.00
2019-04-29T13:30:27.809Z,22.43
2019-04-29T13:32:56.434Z,19.73
2019-04-29T13:35:24.938Z,22.00
2019-04-29T13:37:53.483Z,17.37
2019-04-29T13:40:22.279Z,31.20
2019-04-29T13:42:51.100Z,25.90
2019-04-29T13:45:24.816Z,22.80
2019-04-29T13:48:09.770Z,21.37
2019-04-29T13:50:49.077Z,19.83
2019-04-29T13:53:18.629Z,21.43
2019-04-29T13:55:49.717Z,19.20
2019-04-29T13:58:22.098Z,23.83
2019-04-29T14:00:49.470Z,25.33
2019-04-29T14:03:19.732Z,16.80
2019-04-29T14:05:48.321Z,18.03
2019-04-29T14:08:16.901Z,28.23
2019-04-29T14:10:46.817Z,17.93
2019-04-29T14:13:17.699Z,17.67
2019-04-29T14:15:46.096Z,25.20
2019-04-29T14:18:14.597Z,23.10
2019-04-29T14:20:47.148Z,23.23
2019-04-29T14:23:14.420Z,24.20
2019-04-29T14:25:44.643Z,18.70
2019-04-29T14:28:13.209Z,20.57
2019-04-29T14:30:43.775Z,28.73
2019-04-29T14:33:11.983Z,21.37
2019-04-29T14:35:43.722Z,19.23
2019-04-29T14:38:12.516Z,19.73
2019-04-29T14:40:42.765Z,29.10
2019-04-29T14:43:32.125Z,23.13
2019-04-29T14:46:07.798Z,24.27
2019-04-29T14:48:42.523Z,15.97
2019-04-29T14:51:11.735Z,26.57
2019-04-29T14:53:40.266Z,27.00
2019-04-29T14:56:08.902Z,20.50
2019-04-29T14:58:37.562Z,20.27
2019-04-29T15:01:11.433Z,18.60
2019-04-29T15:03:51.224Z,22.57
2019-04-29T15:06:19.844Z,21.53
2019-04-29T15:08:48.483Z,18.07
2019-04-29T15:11:31.001Z,20.70
2019-04-29T15:13:50.292Z,24.93
2019-04-29T15:16:20.520Z,24.03
2019-04-29T15:18:51.109Z,19.37
2019-04-29T15:21:32.045Z,17.97
2019-04-29T15:23:51.635Z,18.13
2019-04-29T15:26:20.489Z,21.63
2019-04-29T15:28:51.881Z,21.63
2019-04-29T15:31:24.342Z,13.53
2019-04-29T15:33:52.982Z,23.63
2019-04-29T15:36:23.077Z,21.00
2019-04-29T15:39:08.009Z,19.50
2019-04-29T15:41:30.068Z,11.10
2019-04-29T15:44:06.531Z,17.57
2019-04-29T15:46:24.744Z,15.33
2019-04-29T15:48:53.335Z,13.50
2019-04-29T15:51:22.003Z,15.20
2019-04-29T15:53:54.155Z,13.63
2019-04-29T15:56:28.754Z,18.13
2019-04-29T15:58:51.092Z,12.30
2019-04-29T16:01:27.008Z,14.77
2019-04-29T16:03:54.846Z,16.43
2019-04-29T16:06:39.990Z,13.40
2019-04-29T16:09:30.495Z,15.03
2019-04-29T16:12:15.679Z,7.67
2019-04-29T16:14:48.849Z,11.60
2019-04-29T16:17:19.971Z,15.83
2019-04-29T16:19:45.141Z,11.77
2019-04-29T16:22:19.763Z,14.03
2019-04-29T16:24:44.071Z,12.07
2019-04-29T16:27:12.639Z,13.87
2019-04-29T16:29:46.151Z,11.13
2019-04-29T16:32:13.077Z,12.07
2019-04-29T16:34:45.179Z,16.00
2019-04-29T16:37:18.567Z,13.23
2019-04-29T16:39:42.132Z,7.40
2019-04-29T16:42:27.834Z,20.20
2019-04-29T16:44:56.508Z,11.00
2019-04-29T16:47:25.093Z,13.37
2019-04-29T16:49:57.567Z,5.50
2019-04-29T16:52:24.186Z,9.40
2019-04-29T16:54:52.816Z,10.93
2019-04-29T16:57:21.451Z,8.73
2019-04-29T16:59:50.000Z,10.90
2019-04-29T17:02:19.668Z,8.50
2019-04-29T17:04:48.473Z,11.03
2019-04-29T17:07:17.832Z,9.43
2019-04-29T17:09:48.371Z,8.70
2019-04-29T17:12:17.006Z,8.33
2019-04-29T17:15:02.985Z,10.40
2019-04-29T17:17:17.439Z,5.87
2019-04-29T17:19:46.065Z,5.70
2019-04-29T17:22:25.438Z,8.20
2019-04-29T17:24:45.662Z,5.00
2019-04-29T17:27:28.212Z,13.63
2019-04-29T17:30:04.094Z,14.20
2019-04-29T17:32:44.653Z,8.33
2019-04-29T17:35:07.941Z,6.23
2019-04-29T17:37:36.780Z,5.80
2019-04-29T17:40:11.990Z,11.50
2019-04-29T17:42:42.379Z,6.60
2019-04-29T17:45:21.454Z,10.07
2019-04-29T17:47:49.935Z,8.80
2019-04-29T17:50:39.262Z,8.40
2019-04-29T17:53:07.506Z,5.43
2019-04-29T17:55:40.697Z,12.10
2019-04-29T17:58:09.750Z,14.00
2019-04-29T18:00:44.786Z,17.63
2019-04-29T18:03:27.215Z,4.63
2019-04-29T18:05:57.796Z,16.83
2019-04-29T18:08:40.315Z,4.93
2019-04-29T18:11:08.902Z,7.87
2019-04-29T18:13:37.524Z,9.00
2019-04-29T18:16:17.419Z,12.87
2019-04-29T18:18:48.946Z,12.80
2019-04-29T18:21:16.601Z,4.60
2019-04-29T18:24:04.911Z,6.20
2019-04-29T18:26:35.907Z,14.13
2019-04-29T18:29:07.699Z,5.80
2019-04-29T18:31:35.646Z,8.17
2019-04-29T18:34:05.576Z,11.90
2019-04-29T18:36:35.145Z,5.27
2019-04-29T18:39:06.000Z,6.80
2019-04-29T18:41:35.544Z,4.90
2019-04-29T18:44:05.289Z,6.90
2019-04-29T18:46:35.274Z,4.30
2019-04-29T18:49:06.626Z,3.13
2019-04-29T18:51:34.841Z,4.57
2019-04-29T18:54:03.877Z,6.57
2019-04-29T18:56:36.451Z,14.23
2019-04-29T18:59:02.845Z,9.90
2019-04-29T19:01:31.673Z,7.93
2019-04-29T19:04:10.263Z,3.07
2019-04-29T19:06:40.480Z,7.87
2019-04-29T19:09:18.014Z,5.20
2019-04-29T19:11:39.043Z,3.50
2019-04-29T19:14:07.774Z,7.70
2019-04-29T19:16:39.395Z,4.40
2019-04-29T19:19:06.841Z,11.23
2019-04-29T19:21:35.590Z,3.40
2019-04-29T19:24:05.250Z,9.23
2019-04-29T19:26:35.001Z,4.73
2019-04-29T19:29:06.174Z,2.90
2019-04-29T19:31:36.910Z,9.10
2019-04-29T19:34:09.662Z,8.47
2019-04-29T19:36:38.751Z,9.93
2019-04-29T19:39:08.907Z,17.10
2019-04-29T19:41:37.632Z,4.60
2019-04-29T19:44:07.948Z,7.80
2019-04-29T19:46:39.955Z,4.50
2019-04-29T19:49:09.865Z,6.60
2019-04-29T19:51:43.677Z,5.30
2019-04-29T19:54:18.552Z,6.23
2019-04-29T19:56:46.242Z,6.47
2019-04-29T19:59:17.644Z,5.97
2019-04-29T20:01:51.237Z,8.33
2019-04-29T20:04:23.111Z,11.30
2019-04-29T20:06:58.593Z,8.23
2019-04-29T20:09:27.898Z,4.27
2019-04-29T20:11:55.817Z,4.67
2019-04-29T20:14:29.615Z,3.30
2019-04-29T20:17:16.592Z,11.13
2019-04-29T20:19:59.854Z,5.03
2019-04-29T20:22:25.718Z,4.63
2019-04-29T20:24:55.690Z,6.40
2019-04-29T20:27:26.140Z,7.13
2019-04-29T20:29:55.829Z,6.07
2019-04-29T20:32:27.875Z,5.20
2019-04-29T20:34:59.377Z,9.50
2019-04-29T20:37:26.923Z,4.60
2019-04-29T20:39:57.285Z,4.50
2019-04-29T20:42:27.182Z,3.93
2019-04-29T20:44:55.985Z,4.80
2019-04-29T20:47:37.277Z,7.33
2019-04-29T20:49:54.937Z,3.93
2019-04-29T20:52:37.334Z,5.50
2019-04-29T20:55:09.308Z,5.23
2019-04-29T20:57:37.877Z,7.37
2019-04-29T21:00:07.748Z,3.87
2019-04-29T21:02:37.333Z,9.23
2019-04-29T21:05:09.462Z,4.63
2019-04-29T21:07:36.606Z,9.10
2019-04-29T21:10:08.583Z,5.97
2019-04-29T21:12:55.692Z,8.50
2019-04-29T21:15:48.742Z,5.90
2019-04-29T21:18:14.536Z,8.90
2019-04-29T21:20:42.886Z,8.40
2019-04-29T21:23:11.355Z,4.40
2019-04-29T21:25:39.832Z,6.80
2019-04-29T21:28:08.335Z,7.23
2019-04-29T21:30:42.472Z,3.07
2019-04-29T21:33:09.065Z,6.13
2019-04-29T21:35:56.471Z,7.83
2019-04-29T21:38:39.386Z,5.20
2019-04-29T21:41:20.003Z,4.43
2019-04-29T21:43:53.455Z,9.37
2019-04-29T21:46:27.894Z,6.80
2019-04-29T21:48:50.764Z,8.17
2019-04-29T21:51:19.307Z,5.47
2019-04-29T21:53:47.805Z,4.13
2019-04-29T21:56:18.059Z,5.70
2019-04-29T21:58:46.673Z,6.73
2019-04-29T22:01:15.447Z,6.53
2019-04-29T22:03:43.973Z,4.30
2019-04-29T22:06:12.591Z,7.90
2019-04-29T22:08:41.172Z,6.40
2019-04-29T22:11:09.799Z,9.00
2019-04-29T22:13:39.207Z,6.13
2019-04-29T22:16:11.536Z,7.27
2019-04-29T22:18:38.229Z,13.20
2019-04-29T22:21:10.019Z,7.97
2019-04-29T22:23:37.397Z,5.87
2019-04-29T22:26:05.905Z,7.37
2019-04-29T22:28:35.143Z,6.13
2019-04-29T22:31:07.435Z,5.60
2019-04-29T22:33:34.959Z,3.37
2019-04-29T22:36:25.007Z,7.20
2019-04-29T22:38:55.712Z,5.40
2019-04-29T22:41:25.896Z,3.70
2019-04-29T22:44:01.841Z,6.67
2019-04-29T22:46:30.423Z,8.10
2019-04-29T22:48:58.951Z,4.73
2019-04-29T22:51:27.516Z,3.60
2019-04-29T22:53:56.102Z,6.33
2019-04-29T22:56:25.935Z,5.10
2019-04-29T22:58:55.948Z,9.70
2019-04-29T23:01:25.958Z,6.10
2019-04-29T23:03:55.410Z,9.70
2019-04-29T23:06:25.825Z,5.17
2019-04-29T23:08:56.125Z,8.30
2019-04-29T23:11:24.867Z,10.77
2019-04-29T23:13:55.304Z,5.70
2019-04-29T23:16:23.616Z,10.23
2019-04-29T23:18:52.109Z,8.83
2019-04-29T23:21:43.387Z,6.87
2019-04-29T23:24:27.303Z,9.60
2019-04-29T23:26:55.882Z,7.33
2019-04-29T23:29:25.469Z,4.70
2019-04-29T23:31:55.379Z,7.30
2019-04-29T23:34:26.905Z,6.23
2019-04-29T23:36:54.288Z,5.93
2019-04-29T23:39:22.827Z,6.47
2019-04-29T23:41:51.333Z,8.70
2019-04-29T23:44:19.809Z,10.00
2019-04-29T23:46:48.312Z,7.80
2019-04-29T23:49:16.801Z,13.87
2019-04-29T23:51:46.452Z,7.07
2019-04-29T23:54:15.338Z,8.47
2019-04-29T23:56:57.600Z,9.73
2019-04-29T23:59:52.865Z,6.27
